createdAt,value
2018-06-27T00:00:12.020Z,54.69
2018-06-27T00:01:12.025Z,55.41
2018-06-27T00:02:11.994Z,54.91
2018-06-27T00:03:11.985Z,55.41
2018-06-27T00:04:11.968Z,55.21
2018-06-27T00:05:11.958Z,55.58
2018-06-27T00:06:11.936Z,55.02
2018-06-27T00:07:11.954Z,55.51
2018-06-27T00:08:11.940Z,55.02
2018-06-27T00:09:11.939Z,55.02
2018-06-27T00:10:11.929Z,55.11
2018-06-27T00:11:11.910Z,55.21
2018-06-27T00:12:11.915Z,55.11
2018-06-27T00:13:12.833Z,55.21
2018-06-27T00:14:11.866Z,55.02
2018-06-27T00:15:11.845Z,54.71
2018-06-27T00:16:11.849Z,55.02
2018-06-27T00:17:11.832Z,54.91
2018-06-27T00:18:11.835Z,55.02
2018-06-27T00:19:11.800Z,55.11
2018-06-27T00:20:11.788Z,55.11
2018-06-27T00:21:11.787Z,55.02
2018-06-27T00:22:11.770Z,55.11
2018-06-27T00:23:11.779Z,55.71
2018-06-27T00:24:11.763Z,54.82
2018-06-27T00:25:11.752Z,55.62
2018-06-27T00:26:11.751Z,55.29
2018-06-27T00:27:11.764Z,55.02
2018-06-27T00:28:11.706Z,54.91
2018-06-27T00:29:11.691Z,54.91
2018-06-27T00:30:11.695Z,54.82
2018-06-27T00:31:11.674Z,55.21
2018-06-27T00:32:11.679Z,55.32
2018-06-27T00:33:11.653Z,55.11
2018-06-27T00:34:11.692Z,55.21
2018-06-27T00:35:11.657Z,54.49
2018-06-27T00:36:11.612Z,55.11
2018-06-27T00:37:11.617Z,55.21
2018-06-27T00:38:11.587Z,55.21
2018-06-27T00:39:11.626Z,55.62
2018-06-27T00:40:11.610Z,55.32
2018-06-27T00:41:11.559Z,55.62
2018-06-27T00:42:11.567Z,54.91
2018-06-27T00:43:11.537Z,54.91
2018-06-27T00:44:11.592Z,55.62
2018-06-27T00:45:11.542Z,54.91
2018-06-27T00:46:11.524Z,54.91
2018-06-27T00:47:11.492Z,55.51
2018-06-27T00:48:11.495Z,55.02
2018-06-27T00:49:11.492Z,55.11
2018-06-27T00:50:11.474Z,55.02
2018-06-27T00:51:11.466Z,55.11
2018-06-27T00:52:11.447Z,54.91
2018-06-27T00:53:11.428Z,55.41
2018-06-27T00:54:11.418Z,55.11
2018-06-27T00:55:11.431Z,55.02
2018-06-27T00:56:11.424Z,55.02
2018-06-27T00:57:11.378Z,54.82
2018-06-27T00:58:11.367Z,54.82
2018-06-27T00:59:11.360Z,54.91
2018-06-27T01:00:11.355Z,54.82
2018-06-27T01:01:11.344Z,54.91
2018-06-27T01:02:11.323Z,55.02
2018-06-27T01:03:11.433Z,54.82
2018-06-27T01:04:11.343Z,55.02
2018-06-27T01:05:11.292Z,55.21
2018-06-27T01:06:11.313Z,55.02
2018-06-27T01:07:11.284Z,54.82
2018-06-27T01:08:11.277Z,55.11
2018-06-27T01:09:11.377Z,54.82
2018-06-27T01:10:11.245Z,54.91
2018-06-27T01:11:11.305Z,54.82
2018-06-27T01:12:11.225Z,55.11
2018-06-27T01:13:11.205Z,54.82
2018-06-27T01:14:11.205Z,55.11
2018-06-27T01:15:11.195Z,55.11
2018-06-27T01:16:11.170Z,54.91
2018-06-27T01:17:11.203Z,55.11
2018-06-27T01:18:11.160Z,55.41
2018-06-27T01:19:11.134Z,54.82
2018-06-27T01:20:11.291Z,55.02
2018-06-27T01:21:11.122Z,54.41
2018-06-27T01:22:11.142Z,55.11
2018-06-27T01:23:11.105Z,54.91
2018-06-27T01:24:11.087Z,55.02
2018-06-27T01:25:11.114Z,54.71
2018-06-27T01:26:11.069Z,54.91
2018-06-27T01:27:11.091Z,54.82
2018-06-27T01:28:11.049Z,54.82
2018-06-27T01:29:11.039Z,55.02
2018-06-27T01:30:11.021Z,55.02
2018-06-27T01:31:11.072Z,55.02
2018-06-27T01:32:10.995Z,54.82
2018-06-27T01:33:11.032Z,55.11
2018-06-27T01:34:10.979Z,54.82
2018-06-27T01:35:10.956Z,55.02
2018-06-27T01:36:10.949Z,54.82
2018-06-27T01:37:10.936Z,55.11
2018-06-27T01:38:10.999Z,55.02
2018-06-27T01:39:10.934Z,55.32
2018-06-27T01:40:10.907Z,55.11
2018-06-27T01:41:10.955Z,55.41
2018-06-27T01:42:10.885Z,54.82
2018-06-27T01:43:10.881Z,55.11
2018-06-27T01:44:10.886Z,54.91
2018-06-27T01:45:10.891Z,54.91
2018-06-27T01:46:10.848Z,54.82
2018-06-27T01:47:10.831Z,54.71
2018-06-27T01:48:10.819Z,54.82
2018-06-27T01:49:10.816Z,55.11
2018-06-27T01:50:10.839Z,54.91
2018-06-27T01:51:10.787Z,55.11
2018-06-27T01:52:10.810Z,55.02
2018-06-27T01:53:10.761Z,55.41
2018-06-27T01:54:10.751Z,54.82
2018-06-27T01:55:10.785Z,54.82
2018-06-27T01:56:10.738Z,55.02
2018-06-27T01:57:10.718Z,55.02
2018-06-27T01:58:10.702Z,55.02
2018-06-27T01:59:10.696Z,55.21
2018-06-27T02:00:10.722Z,54.61
2018-06-27T02:01:10.670Z,54.91
2018-06-27T02:02:10.802Z,54.91
2018-06-27T02:03:10.643Z,54.82
2018-06-27T02:04:10.633Z,54.82
2018-06-27T02:05:10.631Z,55.02
2018-06-27T02:06:10.760Z,55.02
2018-06-27T02:07:10.598Z,54.91
2018-06-27T02:08:10.617Z,55.02
2018-06-27T02:09:10.592Z,55.21
2018-06-27T02:10:10.589Z,55.02
2018-06-27T02:11:10.625Z,55.11
2018-06-27T02:12:10.582Z,54.91
2018-06-27T02:13:10.550Z,54.91
2018-06-27T02:14:10.593Z,55.02
2018-06-27T02:15:10.513Z,54.91
2018-06-27T02:16:10.596Z,55.02
2018-06-27T02:17:10.491Z,54.71
2018-06-27T02:18:10.512Z,54.71
2018-06-27T02:19:10.472Z,54.82
2018-06-27T02:20:10.460Z,54.82
2018-06-27T02:21:10.444Z,55.02
2018-06-27T02:22:10.442Z,55.02
2018-06-27T02:23:10.427Z,54.91
2018-06-27T02:24:10.415Z,55.21
2018-06-27T02:25:10.409Z,54.91
2018-06-27T02:26:10.424Z,55.11
2018-06-27T02:27:10.420Z,55.02
2018-06-27T02:28:10.368Z,54.91
2018-06-27T02:29:10.356Z,55.02
2018-06-27T02:30:10.359Z,54.82
2018-06-27T02:31:10.338Z,55.02
2018-06-27T02:32:10.325Z,54.71
2018-06-27T02:33:10.348Z,54.52
2018-06-27T02:34:10.324Z,54.82
2018-06-27T02:35:10.303Z,55.21
2018-06-27T02:36:10.278Z,54.82
2018-06-27T02:37:10.270Z,55.11
2018-06-27T02:38:10.321Z,55.02
2018-06-27T02:39:10.242Z,54.82
2018-06-27T02:40:10.234Z,54.91
2018-06-27T02:41:10.224Z,55.02
2018-06-27T02:42:10.210Z,55.02
2018-06-27T02:43:10.204Z,54.71
2018-06-27T02:44:10.247Z,54.52
2018-06-27T02:45:10.222Z,54.82
2018-06-27T02:46:10.186Z,54.61
2018-06-27T02:47:10.204Z,55.21
2018-06-27T02:48:10.156Z,55.02
2018-06-27T02:49:10.157Z,54.91
2018-06-27T02:50:10.129Z,54.91
2018-06-27T02:51:10.113Z,55.11
2018-06-27T02:52:10.127Z,55.11
2018-06-27T02:53:10.124Z,55.11
2018-06-27T02:54:10.082Z,55.02
2018-06-27T02:55:10.074Z,54.82
2018-06-27T02:56:10.060Z,54.82
2018-06-27T02:57:10.081Z,54.82
2018-06-27T02:58:10.081Z,54.91
2018-06-27T02:59:10.051Z,55.02
2018-06-27T03:00:10.078Z,54.91
2018-06-27T03:01:10.055Z,55.21
2018-06-27T03:02:10.010Z,55.02
2018-06-27T03:03:10.006Z,54.91
2018-06-27T03:04:09.981Z,55.11
2018-06-27T03:05:09.995Z,55.21
2018-06-27T03:06:09.950Z,54.71
2018-06-27T03:07:09.939Z,55.02
2018-06-27T03:08:09.928Z,55.11
2018-06-27T03:09:09.915Z,55.11
2018-06-27T03:10:09.899Z,54.82
2018-06-27T03:11:09.910Z,55.11
2018-06-27T03:12:09.952Z,55.11
2018-06-27T03:13:09.862Z,54.82
2018-06-27T03:14:09.853Z,54.74
2018-06-27T03:15:09.858Z,54.91
2018-06-27T03:16:09.860Z,54.91
2018-06-27T03:17:09.828Z,54.82
2018-06-27T03:18:09.810Z,54.71
2018-06-27T03:19:09.795Z,54.91
2018-06-27T03:20:09.782Z,55.02
2018-06-27T03:21:09.798Z,54.82
2018-06-27T03:22:09.762Z,54.82
2018-06-27T03:23:09.755Z,54.82
2018-06-27T03:24:09.784Z,54.52
2018-06-27T03:25:09.773Z,54.82
2018-06-27T03:26:09.716Z,54.82
2018-06-27T03:27:09.761Z,54.91
2018-06-27T03:28:09.713Z,55.02
2018-06-27T03:29:09.790Z,55.02
2018-06-27T03:30:09.751Z,55.02
2018-06-27T03:31:09.664Z,55.32
2018-06-27T03:32:09.784Z,55.02
2018-06-27T03:33:09.678Z,55.02
2018-06-27T03:34:09.663Z,54.82
2018-06-27T03:35:09.640Z,55.11
2018-06-27T03:36:09.632Z,55.32
2018-06-27T03:37:09.681Z,55.21
2018-06-27T03:38:09.621Z,54.61
2018-06-27T03:39:09.586Z,55.02
2018-06-27T03:40:09.558Z,54.82
2018-06-27T03:41:09.556Z,54.82
2018-06-27T03:42:09.549Z,55.21
2018-06-27T03:43:09.535Z,55.11
2018-06-27T03:44:09.523Z,55.02
2018-06-27T03:45:09.558Z,55.11
2018-06-27T03:46:09.522Z,54.82
2018-06-27T03:47:09.498Z,54.41
2018-06-27T03:48:09.504Z,55.11
2018-06-27T03:49:09.464Z,54.41
2018-06-27T03:50:09.495Z,55.11
2018-06-27T03:51:09.460Z,55.21
2018-06-27T03:52:09.455Z,54.61
2018-06-27T03:53:09.423Z,55.11
2018-06-27T03:54:09.424Z,55.21
2018-06-27T03:55:09.402Z,55.21
2018-06-27T03:56:09.390Z,54.52
2018-06-27T03:57:09.383Z,54.82
2018-06-27T03:58:09.369Z,54.82
2018-06-27T03:59:09.378Z,54.71
2018-06-27T04:00:09.345Z,54.61
2018-06-27T04:01:09.337Z,54.61
2018-06-27T04:02:09.320Z,55.21
2018-06-27T04:03:09.315Z,54.91
2018-06-27T04:04:09.297Z,54.82
2018-06-27T04:05:09.277Z,54.82
2018-06-27T04:06:09.273Z,55.21
2018-06-27T04:07:09.262Z,54.82
2018-06-27T04:08:09.255Z,55.02
2018-06-27T04:09:09.268Z,54.91
2018-06-27T04:10:09.226Z,55.21
2018-06-27T04:11:09.253Z,55.11
2018-06-27T04:12:09.234Z,54.91
2018-06-27T04:13:09.280Z,54.52
2018-06-27T04:14:09.246Z,55.14
2018-06-27T04:15:09.168Z,54.82
2018-06-27T04:16:09.178Z,54.82
2018-06-27T04:17:09.147Z,54.71
2018-06-27T04:18:09.160Z,54.91
2018-06-27T04:19:09.127Z,55.11
2018-06-27T04:20:09.128Z,55.11
2018-06-27T04:21:09.144Z,54.82
2018-06-27T04:22:09.117Z,55.02
2018-06-27T04:23:09.092Z,54.91
2018-06-27T04:24:09.132Z,54.91
2018-06-27T04:25:09.141Z,55.11
2018-06-27T04:26:09.084Z,55.11
2018-06-27T04:27:09.045Z,54.94
2018-06-27T04:28:09.039Z,54.71
2018-06-27T04:29:09.013Z,54.82
2018-06-27T04:30:09.017Z,54.82
2018-06-27T04:31:08.997Z,54.91
2018-06-27T04:32:08.981Z,54.82
2018-06-27T04:33:08.979Z,54.71
2018-06-27T04:34:08.961Z,54.74
2018-06-27T04:35:08.989Z,54.61
2018-06-27T04:36:08.965Z,54.91
2018-06-27T04:37:08.928Z,54.61
2018-06-27T04:38:08.922Z,54.71
2018-06-27T04:39:08.907Z,54.91
2018-06-27T04:40:08.897Z,54.64
2018-06-27T04:41:08.891Z,55.24
2018-06-27T04:42:08.885Z,54.82
2018-06-27T04:43:08.922Z,55.11
2018-06-27T04:44:08.851Z,54.61
2018-06-27T04:45:08.845Z,55.24
2018-06-27T04:46:08.850Z,55.11
2018-06-27T04:47:08.812Z,55.21
2018-06-27T04:48:08.794Z,54.82
2018-06-27T04:49:08.793Z,54.71
2018-06-27T04:50:08.776Z,54.91
2018-06-27T04:51:08.765Z,54.84
2018-06-27T04:52:08.779Z,54.52
2018-06-27T04:53:08.817Z,54.82
2018-06-27T04:54:08.745Z,55.41
2018-06-27T04:55:08.752Z,55.21
2018-06-27T04:56:08.707Z,54.61
2018-06-27T04:57:08.720Z,55.11
2018-06-27T04:58:08.687Z,55.21
2018-06-27T04:59:08.721Z,54.61
2018-06-27T05:00:08.669Z,54.64
2018-06-27T05:01:08.651Z,55.21
2018-06-27T05:02:08.707Z,54.91
2018-06-27T05:03:08.643Z,55.21
2018-06-27T05:04:08.628Z,55.11
2018-06-27T05:05:08.621Z,54.71
2018-06-27T05:06:08.601Z,54.52
2018-06-27T05:07:08.635Z,55.02
2018-06-27T05:08:08.622Z,54.74
2018-06-27T05:09:08.562Z,54.94
2018-06-27T05:10:08.554Z,55.02
2018-06-27T05:11:08.544Z,55.14
2018-06-27T05:12:08.549Z,55.11
2018-06-27T05:13:08.574Z,54.82
2018-06-27T05:14:08.555Z,55.14
2018-06-27T05:15:08.508Z,55.21
2018-06-27T05:16:08.496Z,55.02
2018-06-27T05:17:08.526Z,55.21
2018-06-27T05:18:08.537Z,55.41
2018-06-27T05:19:08.513Z,55.02
2018-06-27T05:20:08.490Z,54.61
2018-06-27T05:21:08.438Z,54.61
2018-06-27T05:22:08.420Z,54.61
2018-06-27T05:23:08.417Z,54.82
2018-06-27T05:24:08.418Z,55.21
2018-06-27T05:25:08.394Z,54.71
2018-06-27T05:26:08.392Z,54.52
2018-06-27T05:27:08.364Z,55.11
2018-06-27T05:28:08.378Z,54.52
2018-06-27T05:29:08.367Z,54.52
2018-06-27T05:30:08.363Z,54.84
2018-06-27T05:31:08.322Z,54.71
2018-06-27T05:32:08.327Z,54.71
2018-06-27T05:33:08.341Z,54.91
2018-06-27T05:34:08.284Z,54.91
2018-06-27T05:35:08.273Z,55.21
2018-06-27T05:36:08.283Z,54.91
2018-06-27T05:37:08.257Z,55.02
2018-06-27T05:38:08.254Z,54.74
2018-06-27T05:39:08.257Z,54.94
2018-06-27T05:40:08.257Z,54.82
2018-06-27T05:41:08.202Z,55.21
2018-06-27T05:42:08.234Z,55.02
2018-06-27T05:43:08.184Z,54.82
2018-06-27T05:44:08.262Z,54.61
2018-06-27T05:45:08.197Z,55.21
2018-06-27T05:46:08.151Z,55.02
2018-06-27T05:47:08.154Z,55.14
2018-06-27T05:48:08.131Z,55.21
2018-06-27T05:49:08.247Z,54.61
2018-06-27T05:50:08.165Z,54.82
2018-06-27T05:51:08.093Z,54.82
2018-06-27T05:52:08.078Z,54.71
2018-06-27T05:53:08.124Z,55.24
2018-06-27T05:54:08.063Z,55.11
2018-06-27T05:55:08.154Z,54.61
2018-06-27T05:56:08.081Z,55.11
2018-06-27T05:57:08.074Z,55.24
2018-06-27T05:58:08.103Z,54.91
2018-06-27T05:59:08.041Z,55.02
2018-06-27T06:00:07.994Z,54.71
2018-06-27T06:01:08.005Z,55.11
2018-06-27T06:02:08.007Z,54.74
2018-06-27T06:03:08.003Z,55.21
2018-06-27T06:04:08.041Z,54.71
2018-06-27T06:05:08.033Z,55.21
2018-06-27T06:06:07.962Z,55.02
2018-06-27T06:07:07.975Z,54.82
2018-06-27T06:08:07.914Z,54.71
2018-06-27T06:09:07.947Z,54.61
2018-06-27T06:10:07.912Z,54.84
2018-06-27T06:11:07.914Z,54.94
2018-06-27T06:12:07.858Z,54.52
2018-06-27T06:13:07.845Z,55.02
2018-06-27T06:14:07.848Z,55.02
2018-06-27T06:15:07.836Z,54.91
2018-06-27T06:16:07.823Z,55.21
2018-06-27T06:17:07.846Z,54.61
2018-06-27T06:18:07.793Z,54.52
2018-06-27T06:19:07.778Z,55.32
2018-06-27T06:20:07.769Z,54.91
2018-06-27T06:21:07.761Z,54.82
2018-06-27T06:22:07.749Z,54.82
2018-06-27T06:23:07.739Z,55.21
2018-06-27T06:24:07.727Z,54.71
2018-06-27T06:25:07.718Z,54.71
2018-06-27T06:26:07.713Z,54.71
2018-06-27T06:27:07.733Z,54.71
2018-06-27T06:28:07.688Z,54.52
2018-06-27T06:29:07.670Z,54.82
2018-06-27T06:30:07.656Z,54.61
2018-06-27T06:31:07.647Z,54.52
2018-06-27T06:32:07.762Z,54.91
2018-06-27T06:33:07.624Z,54.82
2018-06-27T06:34:07.637Z,54.82
2018-06-27T06:35:07.616Z,54.82
2018-06-27T06:36:07.613Z,55.02
2018-06-27T06:37:07.583Z,54.91
2018-06-27T06:38:07.575Z,54.52
2018-06-27T06:39:07.562Z,55.11
2018-06-27T06:40:07.567Z,55.21
2018-06-27T06:41:07.653Z,55.11
2018-06-27T06:42:07.565Z,55.02
2018-06-27T06:43:07.541Z,55.02
2018-06-27T06:44:07.508Z,55.11
2018-06-27T06:45:07.517Z,55.11
2018-06-27T06:46:07.513Z,55.02
2018-06-27T06:47:07.527Z,55.11
2018-06-27T06:48:07.513Z,55.02
2018-06-27T06:49:07.524Z,55.02
2018-06-27T06:50:07.491Z,55.11
2018-06-27T06:51:07.462Z,55.02
2018-06-27T06:52:07.445Z,55.11
2018-06-27T06:53:07.406Z,55.11
2018-06-27T06:54:07.410Z,55.11
2018-06-27T06:55:07.537Z,55.32
2018-06-27T06:56:07.363Z,55.11
2018-06-27T06:57:07.351Z,55.02
2018-06-27T06:58:07.375Z,55.11
2018-06-27T06:59:07.364Z,55.02
2018-06-27T07:00:07.336Z,55.02
2018-06-27T07:01:07.302Z,54.82
2018-06-27T07:02:07.308Z,55.21
2018-06-27T07:03:07.322Z,55.11
2018-06-27T07:04:07.279Z,55.02
2018-06-27T07:05:07.266Z,55.11
2018-06-27T07:06:07.258Z,55.11
2018-06-27T07:07:07.251Z,55.51
2018-06-27T07:08:07.235Z,55.02
2018-06-27T07:09:07.222Z,55.11
2018-06-27T07:10:07.239Z,55.02
2018-06-27T07:11:07.276Z,55.11
2018-06-27T07:12:07.178Z,54.71
2018-06-27T07:13:07.221Z,55.11
2018-06-27T07:14:07.174Z,54.82
2018-06-27T07:15:07.169Z,55.11
2018-06-27T07:16:07.508Z,55.11
2018-06-27T07:17:07.129Z,55.32
2018-06-27T07:18:07.129Z,55.11
2018-06-27T07:19:07.106Z,54.71
2018-06-27T07:20:07.219Z,54.91
2018-06-27T07:21:07.108Z,54.91
2018-06-27T07:22:07.122Z,55.02
2018-06-27T07:23:07.060Z,55.11
2018-06-27T07:24:07.054Z,55.02
2018-06-27T07:25:07.046Z,55.02
2018-06-27T07:26:07.032Z,55.02
2018-06-27T07:27:07.021Z,54.82
2018-06-27T07:28:07.004Z,55.02
2018-06-27T07:29:07.000Z,54.91
2018-06-27T07:30:06.996Z,55.21
2018-06-27T07:31:06.976Z,55.21
2018-06-27T07:32:06.993Z,55.32
2018-06-27T07:33:06.989Z,55.21
2018-06-27T07:34:06.937Z,55.11
2018-06-27T07:35:06.929Z,55.51
2018-06-27T07:36:06.926Z,55.32
2018-06-27T07:37:06.903Z,55.02
2018-06-27T07:38:06.915Z,55.02
2018-06-27T07:39:06.887Z,54.91
2018-06-27T07:40:06.870Z,55.11
2018-06-27T07:41:06.870Z,55.32
2018-06-27T07:42:06.850Z,54.91
2018-06-27T07:43:06.866Z,55.21
2018-06-27T07:44:06.819Z,54.91
2018-06-27T07:45:06.815Z,55.51
2018-06-27T07:46:06.800Z,56.61
2018-06-27T07:47:06.789Z,56.51
2018-06-27T07:48:06.817Z,55.81
2018-06-27T07:49:06.772Z,56.11
2018-06-27T07:50:06.764Z,55.81
2018-06-27T07:51:06.749Z,56.21
2018-06-27T07:52:06.738Z,55.81
2018-06-27T07:53:06.724Z,56.01
2018-06-27T07:54:06.714Z,56.01
2018-06-27T07:55:06.784Z,56.11
2018-06-27T07:56:06.690Z,55.91
2018-06-27T07:57:06.704Z,56.01
2018-06-27T07:58:06.692Z,56.21
2018-06-27T07:59:06.717Z,56.21
2018-06-27T08:00:06.645Z,56.11
2018-06-27T08:01:06.654Z,56.11
2018-06-27T08:02:06.621Z,56.31
2018-06-27T08:03:06.629Z,56.61
2018-06-27T08:04:06.600Z,56.01
2018-06-27T08:05:06.610Z,56.21
2018-06-27T08:06:06.597Z,56.71
2018-06-27T08:07:06.575Z,56.21
2018-06-27T08:08:06.555Z,56.21
2018-06-27T08:09:06.552Z,61.00
2018-06-27T08:10:06.567Z,66.36
2018-06-27T08:11:06.525Z,68.66
2018-06-27T08:12:06.533Z,68.66
2018-06-27T08:13:06.501Z,66.47
2018-06-27T08:14:06.500Z,65.37
2018-06-27T08:15:06.520Z,64.90
2018-06-27T08:16:06.466Z,66.20
2018-06-27T08:17:06.450Z,65.90
2018-06-27T08:18:06.546Z,65.80
2018-06-27T08:19:06.436Z,65.80
2018-06-27T08:20:06.421Z,65.20
2018-06-27T08:21:06.470Z,65.50
2018-06-27T08:22:06.404Z,64.93
2018-06-27T08:23:06.380Z,64.60
2018-06-27T08:24:06.466Z,64.83
2018-06-27T08:25:06.383Z,64.30
2018-06-27T08:26:06.354Z,64.43
2018-06-27T08:27:06.441Z,64.03
2018-06-27T08:28:06.368Z,64.13
2018-06-27T08:29:06.335Z,63.83
2018-06-27T08:30:06.330Z,63.80
2018-06-27T08:31:06.313Z,63.63
2018-06-27T08:32:06.312Z,63.40
2018-06-27T08:33:06.322Z,63.40
2018-06-27T08:34:06.297Z,63.00
2018-06-27T08:35:06.289Z,63.00
2018-06-27T08:36:06.263Z,63.00
2018-06-27T08:37:06.241Z,62.90
2018-06-27T08:38:06.217Z,62.60
2018-06-27T08:39:06.229Z,62.70
2018-06-27T08:40:06.227Z,62.81
2018-06-27T08:41:06.197Z,62.50
2018-06-27T08:42:06.282Z,62.70
2018-06-27T08:43:06.290Z,62.50
2018-06-27T08:44:06.153Z,62.30
2018-06-27T08:45:06.219Z,62.50
2018-06-27T08:46:06.126Z,62.50
2018-06-27T08:47:06.236Z,62.30
2018-06-27T08:48:06.120Z,62.20
2018-06-27T08:49:06.089Z,62.30
2018-06-27T08:50:06.090Z,62.30
2018-06-27T08:51:06.089Z,62.10
2018-06-27T08:52:09.048Z,62.20
2018-06-27T08:53:06.190Z,62.10
2018-06-27T08:54:06.184Z,62.10
2018-06-27T08:55:06.035Z,62.30
2018-06-27T08:56:06.177Z,62.20
2018-06-27T08:57:06.093Z,62.01
2018-06-27T08:58:06.002Z,61.87
2018-06-27T08:59:06.522Z,62.10
2018-06-27T09:00:05.992Z,62.01
2018-06-27T09:01:05.968Z,62.30
2018-06-27T09:02:05.984Z,62.01
2018-06-27T09:03:06.004Z,62.07
2018-06-27T09:04:06.037Z,62.07
2018-06-27T09:05:06.011Z,61.68
2018-06-27T09:06:05.909Z,62.07
2018-06-27T09:07:05.886Z,61.68
2018-06-27T09:08:05.872Z,61.77
2018-06-27T09:09:05.986Z,61.98
2018-06-27T09:10:05.879Z,61.47
2018-06-27T09:11:05.855Z,61.57
2018-06-27T09:12:06.471Z,61.57
2018-06-27T09:13:05.856Z,61.98
2018-06-27T09:14:05.831Z,61.77
2018-06-27T09:15:05.848Z,61.77
2018-06-27T09:16:05.794Z,61.57
2018-06-27T09:17:05.781Z,61.77
2018-06-27T09:18:05.823Z,61.77
2018-06-27T09:19:05.849Z,61.77
2018-06-27T09:20:05.830Z,61.57
2018-06-27T09:21:05.724Z,60.97
2018-06-27T09:22:05.787Z,61.87
2018-06-27T09:23:05.801Z,61.87
2018-06-27T09:24:05.702Z,61.68
2018-06-27T09:25:05.699Z,61.38
2018-06-27T09:26:06.072Z,61.57
2018-06-27T09:27:05.763Z,60.97
2018-06-27T09:28:05.701Z,61.38
2018-06-27T09:29:05.634Z,61.77
2018-06-27T09:30:05.666Z,61.77
2018-06-27T09:31:05.658Z,61.38
2018-06-27T09:32:05.615Z,61.18
2018-06-27T09:33:05.604Z,61.38
2018-06-27T09:34:05.592Z,61.18
2018-06-27T09:35:05.637Z,61.77
2018-06-27T09:36:05.565Z,61.57
2018-06-27T09:37:05.609Z,61.27
2018-06-27T09:38:05.614Z,61.57
2018-06-27T09:39:05.528Z,60.97
2018-06-27T09:40:05.511Z,61.27
2018-06-27T09:41:05.513Z,61.57
2018-06-27T09:42:05.649Z,61.38
2018-06-27T09:43:05.482Z,61.18
2018-06-27T09:44:05.472Z,60.88
2018-06-27T09:45:05.462Z,60.97
2018-06-27T09:46:05.445Z,60.78
2018-06-27T09:47:05.440Z,60.78
2018-06-27T09:48:05.470Z,60.95
2018-06-27T09:49:05.417Z,61.18
2018-06-27T09:50:05.401Z,61.05
2018-06-27T09:51:05.389Z,60.97
2018-06-27T09:52:05.380Z,60.88
2018-06-27T09:53:05.392Z,61.15
2018-06-27T09:54:05.358Z,61.27
2018-06-27T09:55:05.364Z,60.88
2018-06-27T09:56:05.337Z,61.18
2018-06-27T09:57:05.428Z,60.97
2018-06-27T09:58:05.347Z,61.05
2018-06-27T09:59:05.303Z,60.45
2018-06-27T10:00:05.284Z,60.78
2018-06-27T10:01:05.276Z,60.88
2018-06-27T10:02:05.336Z,60.85
2018-06-27T10:03:05.307Z,60.88
2018-06-27T10:04:05.310Z,60.35
2018-06-27T10:05:05.234Z,60.75
2018-06-27T10:06:05.227Z,60.45
2018-06-27T10:07:05.213Z,60.48
2018-06-27T10:08:05.212Z,60.48
2018-06-27T10:09:05.196Z,60.75
2018-06-27T10:10:05.195Z,60.65
2018-06-27T10:11:05.173Z,60.48
2018-06-27T10:12:05.157Z,60.38
2018-06-27T10:13:05.140Z,59.15
2018-06-27T10:14:05.164Z,57.65
2018-06-27T10:15:05.127Z,57.76
2018-06-27T10:16:05.137Z,57.35
2018-06-27T10:17:05.117Z,57.56
2018-06-27T10:18:05.110Z,58.06
2018-06-27T10:19:05.106Z,57.56
2018-06-27T10:20:05.079Z,58.38
2018-06-27T10:21:05.070Z,57.78
2018-06-27T10:22:05.128Z,57.95
2018-06-27T10:23:05.034Z,58.15
2018-06-27T10:24:05.043Z,58.45
2018-06-27T10:25:05.037Z,58.45
2018-06-27T10:26:05.046Z,58.58
2018-06-27T10:27:06.044Z,58.78
2018-06-27T10:28:05.038Z,58.95
2018-06-27T10:29:05.004Z,58.75
2018-06-27T10:30:04.959Z,58.55
2018-06-27T10:31:04.951Z,58.78
2018-06-27T10:32:04.930Z,58.45
2018-06-27T10:33:04.923Z,58.45
2018-06-27T10:34:04.927Z,58.55
2018-06-27T10:35:04.941Z,58.55
2018-06-27T10:36:04.951Z,59.05
2018-06-27T10:37:04.953Z,59.05
2018-06-27T10:38:04.874Z,58.85
2018-06-27T10:39:04.945Z,58.95
2018-06-27T10:40:04.890Z,58.95
2018-06-27T10:41:04.860Z,58.95
2018-06-27T10:42:04.846Z,59.05
2018-06-27T10:43:04.833Z,59.05
2018-06-27T10:44:04.793Z,59.05
2018-06-27T10:45:04.789Z,58.36
2018-06-27T10:46:04.813Z,58.75
2018-06-27T10:47:04.823Z,58.55
2018-06-27T10:48:04.797Z,58.06
2018-06-27T10:49:04.760Z,58.25
2018-06-27T10:50:04.793Z,58.25
2018-06-27T10:51:04.730Z,57.86
2018-06-27T10:52:04.711Z,57.86
2018-06-27T10:53:04.703Z,58.55
2018-06-27T10:54:04.702Z,57.46
2018-06-27T10:55:04.702Z,57.76
2018-06-27T10:56:04.660Z,58.36
2018-06-27T10:57:04.651Z,57.26
2018-06-27T10:58:04.676Z,57.86
2018-06-27T10:59:04.631Z,57.46
2018-06-27T11:00:04.740Z,57.95
2018-06-27T11:01:04.624Z,58.36
2018-06-27T11:02:04.616Z,58.55
2018-06-27T11:03:04.588Z,58.75
2018-06-27T11:04:04.581Z,58.45
2018-06-27T11:05:04.564Z,59.15
2018-06-27T11:06:04.554Z,58.95
2018-06-27T11:07:04.545Z,59.05
2018-06-27T11:08:04.534Z,59.25
2018-06-27T11:09:04.523Z,59.25
2018-06-27T11:10:04.511Z,59.45
2018-06-27T11:11:04.498Z,59.35
2018-06-27T11:12:04.510Z,60.45
2018-06-27T11:13:04.482Z,60.35
2018-06-27T11:14:04.479Z,59.95
2018-06-27T11:15:04.454Z,60.35
2018-06-27T11:16:04.467Z,60.05
2018-06-27T11:17:04.435Z,60.65
2018-06-27T11:18:04.423Z,60.55
2018-06-27T11:19:04.414Z,60.55
2018-06-27T11:20:04.432Z,60.65
2018-06-27T11:21:04.398Z,60.55
2018-06-27T11:22:04.477Z,60.85
2018-06-27T11:23:04.372Z,61.15
2018-06-27T11:24:04.366Z,61.25
2018-06-27T11:25:04.353Z,60.85
2018-06-27T11:26:04.339Z,60.95
2018-06-27T11:27:04.379Z,60.97
2018-06-27T11:28:04.353Z,61.94
2018-06-27T11:29:04.310Z,61.35
2018-06-27T11:30:04.289Z,61.74
2018-06-27T11:31:04.288Z,61.25
2018-06-27T11:32:04.364Z,62.24
2018-06-27T11:33:04.296Z,61.77
2018-06-27T11:34:04.304Z,62.04
2018-06-27T11:35:04.241Z,62.04
2018-06-27T11:36:04.242Z,61.85
2018-06-27T11:37:04.241Z,61.85
2018-06-27T11:38:04.201Z,62.15
2018-06-27T11:39:04.299Z,62.15
2018-06-27T11:40:04.181Z,61.94
2018-06-27T11:41:04.176Z,62.27
2018-06-27T11:42:04.154Z,62.45
2018-06-27T11:43:04.276Z,62.04
2018-06-27T11:44:04.149Z,62.27
2018-06-27T11:45:04.135Z,62.45
2018-06-27T11:46:04.123Z,62.48
2018-06-27T11:47:04.106Z,62.45
2018-06-27T11:48:04.092Z,62.45
2018-06-27T11:49:04.083Z,62.45
2018-06-27T11:50:04.078Z,62.45
2018-06-27T11:51:04.077Z,62.48
2018-06-27T11:52:04.071Z,62.48
2018-06-27T11:53:04.045Z,62.45
2018-06-27T11:54:04.056Z,62.27
2018-06-27T11:55:04.032Z,62.84
2018-06-27T11:56:04.018Z,62.48
2018-06-27T11:57:04.023Z,62.45
2018-06-27T11:58:03.990Z,63.17
2018-06-27T11:59:03.976Z,62.67
2018-06-27T12:00:03.985Z,62.64
2018-06-27T12:01:03.953Z,62.84
2018-06-27T12:02:03.956Z,62.94
2018-06-27T12:03:03.933Z,62.77
2018-06-27T12:04:03.919Z,62.97
2018-06-27T12:05:03.927Z,62.94
2018-06-27T12:06:03.912Z,62.94
2018-06-27T12:07:03.941Z,63.17
2018-06-27T12:08:03.882Z,62.97
2018-06-27T12:09:03.864Z,62.97
2018-06-27T12:10:03.886Z,63.17
2018-06-27T12:11:03.845Z,62.87
2018-06-27T12:12:03.839Z,63.07
2018-06-27T12:13:03.832Z,63.24
2018-06-27T12:14:03.805Z,63.14
2018-06-27T12:15:03.802Z,63.14
2018-06-27T12:16:03.800Z,62.74
2018-06-27T12:17:03.812Z,63.37
2018-06-27T12:18:03.774Z,63.24
2018-06-27T12:19:03.761Z,63.44
2018-06-27T12:20:03.753Z,63.27
2018-06-27T12:21:03.751Z,63.37
2018-06-27T12:22:03.732Z,63.07
2018-06-27T12:23:03.723Z,63.27
2018-06-27T12:24:03.711Z,63.04
2018-06-27T12:25:03.709Z,63.07
2018-06-27T12:26:03.716Z,62.94
2018-06-27T12:27:03.670Z,63.24
2018-06-27T12:28:03.654Z,63.47
2018-06-27T12:29:03.648Z,63.34
2018-06-27T12:30:03.638Z,63.34
2018-06-27T12:31:03.637Z,63.44
2018-06-27T12:32:03.615Z,63.37
2018-06-27T12:33:03.597Z,62.97
2018-06-27T12:34:03.588Z,63.04
2018-06-27T12:35:03.581Z,63.34
2018-06-27T12:36:03.597Z,63.37
2018-06-27T12:37:03.562Z,63.24
2018-06-27T12:38:03.545Z,63.44
2018-06-27T12:39:03.527Z,63.37
2018-06-27T12:40:03.528Z,63.37
2018-06-27T12:41:03.540Z,63.14
2018-06-27T12:42:03.493Z,63.47
2018-06-27T12:43:03.504Z,63.77
2018-06-27T12:44:03.477Z,62.77
2018-06-27T12:45:03.466Z,63.07
2018-06-27T12:46:03.468Z,62.54
2018-06-27T12:47:03.443Z,62.84
2018-06-27T12:48:03.431Z,63.47
2018-06-27T12:49:03.426Z,62.87
2018-06-27T12:50:03.519Z,62.97
2018-06-27T12:51:03.418Z,63.14
2018-06-27T12:52:03.385Z,62.84